KSFF/SFF METAR and TAF weather

Enter ICAO airport designator
Station Type Date Time Source
KSFF METAR 2019/10/15 17:53 UTC NOAA

KSFF 151753Z 15003KT 10SM CLR 10/02 A3010 RMK AO2 SLP198 T01000022 10106 20011 58010


Station Type Date Time Source
KSFF Decoded METAR 2019/10/15 17:53 UTC NOAA

FELTS FIELD, WA, United States (KSFF) 47-41N 117-19W 609M
Oct 15, 2019 - 01:53 PM EDT / 2019.10.15 1753 UTC
Wind: from the SSE (150 degrees) at 3 MPH (3 KT):0
Visibility: 10 mile(s):0
Sky conditions: clear
Temperature: 50.0 F (10.0 C)
Dew Point: 36.0 F (2.2 C)
Relative Humidity: 58%
Pressure (altimeter): 30.1 in. Hg (1019 hPa)
Pressure tendency: 0.03 inches (1.0 hPa) lower than three hours ago
ob: KSFF 151753Z 15003KT 10SM CLR 10/02 A3010 RMK AO2 SLP198 T01000022 10106 20011 58010
cycle: 18

Station Type Date Time Source
KSFF TAF 2019/10/15 18:27 UTC NOAA

TAF KSFF 151724Z 1518/1618 VRB04KT P6SM SCT080 SCT150 BKN250

Example: see airport list